createdAt,value
2022-08-28T00:03:57.228Z,85.80
2022-08-28T00:09:02.794Z,86.13
2022-08-28T00:14:10.799Z,86.21
2022-08-28T00:19:18.843Z,86.48
2022-08-28T00:24:24.605Z,86.94
2022-08-28T00:29:30.373Z,86.50
2022-08-28T00:34:36.252Z,86.60
2022-08-28T00:39:41.806Z,86.62
2022-08-28T00:44:47.481Z,86.77
2022-08-28T00:49:56.326Z,86.88
2022-08-28T00:55:08.711Z,86.95
2022-08-28T01:00:17.458Z,86.35
2022-08-28T01:05:24.077Z,87.33
2022-08-28T01:10:33.023Z,87.83
2022-08-28T01:15:41.767Z,87.60
2022-08-28T01:20:53.577Z,88.59
2022-08-28T01:26:00.446Z,88.69
2022-08-28T01:31:07.163Z,88.94
2022-08-28T01:36:13.868Z,88.34
2022-08-28T01:41:19.816Z,89.44
2022-08-28T01:46:25.361Z,89.84
2022-08-28T01:51:35.071Z,90.20
2022-08-28T01:56:38.632Z,90.07
2022-08-28T02:01:45.245Z,90.19
2022-08-28T02:06:51.022Z,89.96
2022-08-28T02:11:57.520Z,90.73
2022-08-28T02:17:04.410Z,91.00
2022-08-28T02:22:09.879Z,91.06
2022-08-28T02:27:15.439Z,90.69
2022-08-28T02:32:21.098Z,91.34
2022-08-28T02:37:26.662Z,91.12
2022-08-28T02:42:32.139Z,91.54
2022-08-28T02:47:37.935Z,91.52
2022-08-28T02:52:44.279Z,91.81
2022-08-28T02:57:50.474Z,91.71
2022-08-28T03:02:56.239Z,92.22
2022-08-28T03:08:01.893Z,92.05
2022-08-28T03:13:07.524Z,91.77
2022-08-28T03:18:15.158Z,91.89
2022-08-28T03:23:27.168Z,93.08
2022-08-28T03:28:35.809Z,92.86
2022-08-28T03:33:43.015Z,92.76
2022-08-28T03:38:49.721Z,93.03
2022-08-28T03:43:55.285Z,93.17
2022-08-28T03:49:02.721Z,92.73
2022-08-28T03:54:08.280Z,92.98
2022-08-28T03:59:13.832Z,93.21
2022-08-28T04:04:19.452Z,93.31
2022-08-28T04:09:24.951Z,93.70
2022-08-28T04:14:30.518Z,93.40
2022-08-28T04:19:36.422Z,93.37
2022-08-28T04:24:44.100Z,94.35
2022-08-28T04:29:50.176Z,94.48
2022-08-28T04:34:55.748Z,93.48
2022-08-28T04:40:01.339Z,93.69
2022-08-28T04:45:07.838Z,94.45
2022-08-28T04:50:13.669Z,94.42
2022-08-28T04:55:27.847Z,93.44
2022-08-28T05:00:26.840Z,94.38
2022-08-28T05:05:32.407Z,94.34
2022-08-28T05:10:38.480Z,94.09
2022-08-28T05:15:46.721Z,93.81
2022-08-28T05:20:52.890Z,93.69
2022-08-28T05:25:58.661Z,93.75
2022-08-28T05:31:12.335Z,93.54
2022-08-28T05:36:19.787Z,94.00
2022-08-28T05:41:29.963Z,93.77
2022-08-28T05:46:37.650Z,94.09
2022-08-28T05:51:44.083Z,94.29
2022-08-28T05:56:49.831Z,94.22
2022-08-28T06:01:55.416Z,93.40
2022-08-28T06:07:01.119Z,93.75
2022-08-28T06:12:06.971Z,93.58
2022-08-28T06:17:13.253Z,93.87
2022-08-28T06:22:19.153Z,93.26
2022-08-28T06:27:24.794Z,94.01
2022-08-28T06:32:30.457Z,94.45
2022-08-28T06:37:36.079Z,94.84
2022-08-28T06:42:41.595Z,94.79
2022-08-28T06:47:49.353Z,94.41
2022-08-28T06:52:57.119Z,94.68
2022-08-28T06:58:03.044Z,95.00
2022-08-28T07:03:08.618Z,95.09
2022-08-28T07:08:14.417Z,94.45
2022-08-28T07:13:20.706Z,95.00
2022-08-28T07:18:26.368Z,94.84
2022-08-28T07:23:34.364Z,94.85
2022-08-28T07:28:40.478Z,94.86
2022-08-28T07:33:46.343Z,94.91
2022-08-28T07:38:54.063Z,94.85
2022-08-28T07:44:18.668Z,95.21
2022-08-28T07:49:25.695Z,94.86
2022-08-28T07:54:31.292Z,94.98
2022-08-28T07:59:38.236Z,94.35
2022-08-28T08:04:45.033Z,94.92
2022-08-28T08:09:50.613Z,94.95
2022-08-28T08:14:56.475Z,94.92
2022-08-28T08:20:02.102Z,95.23
2022-08-28T08:25:08.513Z,94.92
2022-08-28T08:30:14.284Z,95.15
2022-08-28T08:35:19.966Z,95.23
2022-08-28T08:40:25.595Z,94.55
2022-08-28T08:45:32.862Z,94.26
2022-08-28T08:50:38.981Z,94.47
2022-08-28T08:55:53.919Z,94.41
2022-08-28T09:01:36.281Z,94.87
2022-08-28T09:07:00.403Z,94.84
2022-08-28T09:12:09.502Z,93.82
2022-08-28T09:17:18.154Z,94.15
2022-08-28T09:22:23.972Z,93.74
2022-08-28T09:27:33.423Z,93.37
2022-08-28T09:32:44.361Z,93.65
2022-08-28T09:37:50.145Z,92.66
2022-08-28T09:43:22.375Z,92.59
2022-08-28T09:48:40.043Z,92.60
2022-08-28T09:53:57.800Z,92.22
2022-08-28T09:59:12.556Z,92.04
2022-08-28T10:04:44.664Z,92.22
2022-08-28T10:10:06.456Z,91.08
2022-08-28T10:15:30.859Z,91.72
2022-08-28T10:20:51.968Z,91.76
2022-08-28T10:26:18.789Z,92.53
2022-08-28T10:31:36.536Z,91.97
2022-08-28T10:36:45.482Z,91.75
2022-08-28T10:41:57.535Z,88.74
2022-08-28T10:47:05.425Z,87.88
2022-08-28T10:52:19.890Z,89.23
2022-08-28T10:57:29.556Z,87.02
2022-08-28T11:02:36.913Z,87.03
2022-08-28T11:07:45.596Z,85.59
2022-08-28T11:12:53.546Z,86.33
2022-08-28T11:18:18.023Z,84.59
2022-08-28T11:23:29.419Z,84.81
2022-08-28T11:28:44.812Z,85.45
2022-08-28T11:33:53.074Z,85.70
2022-08-28T11:39:01.877Z,81.58
2022-08-28T11:44:13.600Z,81.58
2022-08-28T11:49:36.973Z,80.97
2022-08-28T11:55:17.194Z,81.23
2022-08-28T12:00:31.526Z,79.48
2022-08-28T12:05:44.313Z,76.16
2022-08-28T12:10:55.753Z,73.68
2022-08-28T12:16:07.338Z,72.81
2022-08-28T12:21:21.941Z,72.23
2022-08-28T12:26:35.294Z,69.79
2022-08-28T12:32:04.298Z,70.21
2022-08-28T12:37:28.095Z,70.02
2022-08-28T12:42:36.657Z,68.81
2022-08-28T12:47:44.857Z,68.13
2022-08-28T12:52:53.057Z,69.35
2022-08-28T12:57:58.955Z,64.51
2022-08-28T13:03:06.621Z,64.26
2022-08-28T13:08:13.633Z,64.92
2022-08-28T13:13:40.231Z,63.92
2022-08-28T13:18:55.430Z,62.98
2022-08-28T13:24:01.564Z,62.10
2022-08-28T13:29:10.326Z,61.43
2022-08-28T13:34:27.982Z,61.40
2022-08-28T13:39:35.341Z,61.87
2022-08-28T13:44:49.471Z,60.58
2022-08-28T13:49:55.023Z,59.55
2022-08-28T13:55:01.088Z,58.94
2022-08-28T14:00:07.961Z,59.03
2022-08-28T14:05:13.824Z,58.58
2022-08-28T14:10:19.534Z,58.95
2022-08-28T14:15:25.202Z,58.05
2022-08-28T14:20:31.172Z,58.14
2022-08-28T14:25:39.304Z,59.35
2022-08-28T14:30:47.330Z,58.50
2022-08-28T14:35:53.089Z,59.21
2022-08-28T14:40:58.791Z,59.35
2022-08-28T14:46:08.349Z,60.57
2022-08-28T14:51:11.935Z,59.99
2022-08-28T14:56:17.495Z,60.56
2022-08-28T15:01:39.757Z,59.90
2022-08-28T15:06:37.017Z,60.21
2022-08-28T15:11:43.818Z,59.63
2022-08-28T15:16:50.515Z,60.27
2022-08-28T15:21:57.470Z,60.42
2022-08-28T15:27:03.665Z,60.43
2022-08-28T15:32:09.150Z,60.44
2022-08-28T15:37:14.821Z,60.53
2022-08-28T15:42:20.375Z,60.73
2022-08-28T15:47:26.349Z,60.48
2022-08-28T15:52:32.430Z,60.92
2022-08-28T15:57:38.556Z,60.85
2022-08-28T16:02:46.949Z,60.28
2022-08-28T16:07:52.855Z,60.81
2022-08-28T16:12:58.683Z,60.59
2022-08-28T16:18:05.962Z,61.38
2022-08-28T16:23:13.525Z,62.62
2022-08-28T16:28:19.475Z,59.61
2022-08-28T16:33:27.130Z,58.71
2022-08-28T16:38:32.749Z,59.70
2022-08-28T16:43:38.713Z,58.93
2022-08-28T16:48:45.198Z,58.19
2022-08-28T16:53:50.773Z,57.54
2022-08-28T16:58:58.588Z,56.96
2022-08-28T17:04:05.510Z,57.01
2022-08-28T17:09:11.564Z,57.42
2022-08-28T17:14:18.459Z,56.56
2022-08-28T17:19:24.947Z,56.56
2022-08-28T17:24:31.227Z,56.90
2022-08-28T17:29:39.246Z,56.98
2022-08-28T17:34:44.924Z,57.04
2022-08-28T17:39:50.586Z,57.14
2022-08-28T17:44:56.151Z,57.34
2022-08-28T17:50:02.804Z,57.32
2022-08-28T17:55:10.042Z,57.64
2022-08-28T18:00:17.163Z,57.90
2022-08-28T18:05:23.226Z,58.05
2022-08-28T18:10:31.448Z,57.82
2022-08-28T18:15:37.391Z,58.48
2022-08-28T18:20:44.107Z,58.82
2022-08-28T18:25:51.306Z,59.09
2022-08-28T18:30:57.032Z,59.52
2022-08-28T18:36:02.778Z,59.70
2022-08-28T18:41:09.017Z,60.12
2022-08-28T18:46:14.737Z,60.63
2022-08-28T18:51:24.569Z,60.89
2022-08-28T18:56:32.526Z,61.14
2022-08-28T19:01:39.796Z,61.38
2022-08-28T19:06:46.394Z,61.88
2022-08-28T19:11:52.551Z,62.26
2022-08-28T19:16:58.522Z,62.42
2022-08-28T19:22:04.091Z,62.85
2022-08-28T19:27:10.745Z,63.25
2022-08-28T19:32:16.243Z,63.58
2022-08-28T19:37:21.807Z,63.80
2022-08-28T19:42:28.574Z,64.42
2022-08-28T19:47:35.653Z,64.69
2022-08-28T19:52:43.113Z,64.80
2022-08-28T19:57:49.409Z,64.99
2022-08-28T20:02:58.058Z,65.37
2022-08-28T20:08:04.284Z,65.47
2022-08-28T20:13:10.061Z,65.82
2022-08-28T20:18:16.359Z,66.02
2022-08-28T20:23:22.117Z,66.12
2022-08-28T20:28:27.563Z,66.46
2022-08-28T20:33:33.437Z,66.71
2022-08-28T20:38:39.902Z,66.85
2022-08-28T20:43:46.751Z,67.12
2022-08-28T20:48:52.200Z,67.33
2022-08-28T20:53:57.769Z,67.53
2022-08-28T20:59:03.246Z,67.74
2022-08-28T21:04:09.196Z,67.91
2022-08-28T21:09:15.857Z,68.26
2022-08-28T21:14:21.563Z,68.29
2022-08-28T21:19:29.247Z,68.44
2022-08-28T21:24:34.453Z,68.66
2022-08-28T21:29:39.997Z,68.90
2022-08-28T21:34:45.561Z,69.22
2022-08-28T21:39:51.130Z,69.26
2022-08-28T21:44:56.734Z,69.59
2022-08-28T21:50:02.363Z,69.63
2022-08-28T21:55:11.550Z,69.94
2022-08-28T22:00:22.970Z,70.12
2022-08-28T22:05:28.892Z,70.33
2022-08-28T22:10:38.631Z,70.42
2022-08-28T22:15:44.724Z,70.60
2022-08-28T22:21:08.614Z,70.56
2022-08-28T22:26:17.589Z,70.62
2022-08-28T22:31:23.803Z,70.58
2022-08-28T22:36:29.518Z,70.41
2022-08-28T22:41:36.826Z,70.47
2022-08-28T22:46:42.290Z,70.38
2022-08-28T22:51:48.262Z,70.34
2022-08-28T22:56:53.725Z,70.14
2022-08-28T23:01:59.907Z,70.29
2022-08-28T23:07:06.280Z,70.44
2022-08-28T23:12:11.754Z,70.29
2022-08-28T23:17:18.723Z,70.22
2022-08-28T23:22:24.811Z,70.33
2022-08-28T23:27:38.216Z,70.37
2022-08-28T23:32:38.404Z,70.50
2022-08-28T23:37:48.916Z,70.61
2022-08-28T23:42:54.555Z,70.58
2022-08-28T23:48:00.930Z,70.72
2022-08-28T23:53:06.598Z,70.74
2022-08-28T23:58:13.756Z,70.87
